CheckWX is a tool to help pilots better visualize weather data.  It is not intended as a substitute for an official pre-flight weather briefing.

05:33:05 UTC

KITH TAF
Ithaca Tompkins Regional Airport
Ithaca, New York, USA
KITH 222320Z 2300/2324 VRB03KT P6SM SCT200 FM231400 33008KT P6SM SCT040 AMD NOT SKED

Aug-23@
00:00 UTC

Aug-23 @ 00:00 UTC

Aug-23@
14:00 UTC

Aug-23 @ 14:00 UTC

KITH 222320Z 2300/2324 VRB03KT P6SM SCT200
Wind
  • Variable at 3 KTS
Cloud Levels
  • Scattered at 20,000' AGL

Aug-23@
14:00 UTC

Aug-23 @ 14:00 UTC

Aug-24@
00:00 UTC

Aug-24 @ 00:00 UTC

FM231400 33008KT P6SM SCT040 AMD NOT SKED

From

From Standard forecast or significant change

Wind
  • 330° at 8 KTS
Cloud Levels
  • Scattered at 4,000' AGL